sensor_id;sensor_type;location;lat;lon;timestamp;pressure;altitude;pressure_sealevel;temperature;humidity
76216;BME280;65010;50.190;18.930;2024-03-06T00:00:42;98496.16;;;5.44;56.85
76216;BME280;65010;50.190;18.930;2024-03-06T00:03:51;98493.31;;;5.37;56.85
76216;BME280;65010;50.190;18.930;2024-03-06T00:06:58;98494.97;;;5.28;56.65
76216;BME280;65010;50.190;18.930;2024-03-06T00:10:04;98486.16;;;5.20;56.91
76216;BME280;65010;50.190;18.930;2024-03-06T00:13:11;98490.13;;;5.14;57.04
76216;BME280;65010;50.190;18.930;2024-03-06T00:16:17;98492.31;;;5.09;56.90
76216;BME280;65010;50.190;18.930;2024-03-06T00:19:26;98491.75;;;5.05;56.88
76216;BME280;65010;50.190;18.930;2024-03-06T00:22:32;98502.59;;;5.01;56.60
76216;BME280;65010;50.190;18.930;2024-03-06T00:25:41;98496.00;;;4.97;56.64
76216;BME280;65010;50.190;18.930;2024-03-06T00:28:47;98503.50;;;4.90;56.39
76216;BME280;65010;50.190;18.930;2024-03-06T00:31:53;98502.53;;;4.81;56.72
76216;BME280;65010;50.190;18.930;2024-03-06T00:35:02;98514.06;;;4.79;56.65
76216;BME280;65010;50.190;18.930;2024-03-06T00:38:09;98507.59;;;4.73;56.60
76216;BME280;65010;50.190;18.930;2024-03-06T00:41:16;98506.34;;;4.67;56.90
76216;BME280;65010;50.190;18.930;2024-03-06T00:44:22;98517.84;;;4.65;56.84
76216;BME280;65010;50.190;18.930;2024-03-06T00:47:28;98511.38;;;4.59;56.95
76216;BME280;65010;50.190;18.930;2024-03-06T00:50:37;98508.34;;;4.54;57.01
76216;BME280;65010;50.190;18.930;2024-03-06T00:53:43;98510.28;;;4.52;57.14
76216;BME280;65010;50.190;18.930;2024-03-06T00:56:50;98507.09;;;4.48;57.14
76216;BME280;65010;50.190;18.930;2024-03-06T00:59:56;98490.47;;;4.40;57.36
76216;BME280;65010;50.190;18.930;2024-03-06T01:03:02;98504.06;;;4.43;57.83
76216;BME280;65010;50.190;18.930;2024-03-06T01:06:11;98505.16;;;4.41;57.85
76216;BME280;65010;50.190;18.930;2024-03-06T01:09:17;98510.47;;;4.39;57.89
76216;BME280;65010;50.190;18.930;2024-03-06T01:12:23;98512.25;;;4.39;58.08
76216;BME280;65010;50.190;18.930;2024-03-06T01:15:30;98511.28;;;4.40;57.90
76216;BME280;65010;50.190;18.930;2024-03-06T01:18:35;98512.94;;;4.41;58.39
76216;BME280;65010;50.190;18.930;2024-03-06T01:21:45;98516.25;;;4.43;58.83
76216;BME280;65010;50.190;18.930;2024-03-06T01:24:51;98516.25;;;4.43;59.14
76216;BME280;65010;50.190;18.930;2024-03-06T01:27:57;98523.78;;;4.46;59.85
76216;BME280;65010;50.190;18.930;2024-03-06T01:31:03;98528.03;;;4.47;60.15
76216;BME280;65010;50.190;18.930;2024-03-06T01:34:10;98528.84;;;4.47;60.30
76216;BME280;65010;50.190;18.930;2024-03-06T01:37:18;98524.50;;;4.48;60.87
76216;BME280;65010;50.190;18.930;2024-03-06T01:40:25;98533.00;;;4.50;61.01
76216;BME280;65010;50.190;18.930;2024-03-06T01:43:37;98530.41;;;4.50;61.33
76216;BME280;65010;50.190;18.930;2024-03-06T01:46:45;98532.31;;;4.48;61.64
76216;BME280;65010;50.190;18.930;2024-03-06T01:49:52;98529.84;;;4.46;61.91
76216;BME280;65010;50.190;18.930;2024-03-06T01:53:01;98536.78;;;4.46;62.02
76216;BME280;65010;50.190;18.930;2024-03-06T01:56:08;98533.38;;;4.45;62.32
76216;BME280;65010;50.190;18.930;2024-03-06T01:59:25;98529.94;;;4.45;62.33
76216;BME280;65010;50.190;18.930;2024-03-06T02:02:39;98531.75;;;4.44;62.46
76216;BME280;65010;50.190;18.930;2024-03-06T02:05:48;98530.47;;;4.39;62.75
76216;BME280;65010;50.190;18.930;2024-03-06T02:08:58;98529.66;;;4.38;62.99
76216;BME280;65010;50.190;18.930;2024-03-06T02:12:07;98535.69;;;4.39;63.13
76216;BME280;65010;50.190;18.930;2024-03-06T02:15:13;98528.69;;;4.39;63.02
76216;BME280;65010;50.190;18.930;2024-03-06T02:18:20;98528.97;;;4.36;63.40
76216;BME280;65010;50.190;18.930;2024-03-06T02:21:28;98530.72;;;4.36;63.57
76216;BME280;65010;50.190;18.930;2024-03-06T02:24:35;98534.16;;;4.36;63.53
76216;BME280;65010;50.190;18.930;2024-03-06T02:27:41;98534.00;;;4.38;63.72
76216;BME280;65010;50.190;18.930;2024-03-06T02:30:50;98534.16;;;4.36;63.66
76216;BME280;65010;50.190;18.930;2024-03-06T02:33:56;98527.41;;;4.34;63.56
76216;BME280;65010;50.190;18.930;2024-03-06T02:37:05;98537.66;;;4.25;63.18
76216;BME280;65010;50.190;18.930;2024-03-06T02:40:12;98530.38;;;4.19;63.58
76216;BME280;65010;50.190;18.930;2024-03-06T02:43:18;98533.34;;;4.15;63.55
76216;BME280;65010;50.190;18.930;2024-03-06T02:46:24;98537.28;;;4.09;63.38
76216;BME280;65010;50.190;18.930;2024-03-06T02:49:30;98533.88;;;4.08;63.57
76216;BME280;65010;50.190;18.930;2024-03-06T02:52:39;98528.66;;;4.08;63.46
76216;BME280;65010;50.190;18.930;2024-03-06T02:55:45;98536.47;;;4.08;63.55
76216;BME280;65010;50.190;18.930;2024-03-06T02:58:51;98546.75;;;4.10;63.33
76216;BME280;65010;50.190;18.930;2024-03-06T03:01:58;98539.78;;;4.10;63.14
76216;BME280;65010;50.190;18.930;2024-03-06T03:05:06;98535.66;;;4.08;63.42
76216;BME280;65010;50.190;18.930;2024-03-06T03:08:16;98536.09;;;4.13;63.44
76216;BME280;65010;50.190;18.930;2024-03-06T03:11:22;98541.28;;;4.13;63.14
76216;BME280;65010;50.190;18.930;2024-03-06T03:14:28;98544.84;;;4.12;63.17
76216;BME280;65010;50.190;18.930;2024-03-06T03:17:34;98554.69;;;4.08;63.19
76216;BME280;65010;50.190;18.930;2024-03-06T03:20:41;98553.97;;;4.06;63.20
76216;BME280;65010;50.190;18.930;2024-03-06T03:23:49;98553.16;;;4.06;63.01
76216;BME280;65010;50.190;18.930;2024-03-06T03:26:56;98556.72;;;4.05;63.30
76216;BME280;65010;50.190;18.930;2024-03-06T03:30:02;98558.50;;;4.04;63.26
76216;BME280;65010;50.190;18.930;2024-03-06T03:33:12;98556.59;;;4.06;63.36
76216;BME280;65010;50.190;18.930;2024-03-06T03:36:18;98554.81;;;4.07;63.34
76216;BME280;65010;50.190;18.930;2024-03-06T03:39:27;98552.19;;;4.07;63.01
76216;BME280;65010;50.190;18.930;2024-03-06T03:42:33;98558.72;;;4.01;63.08
76216;BME280;65010;50.190;18.930;2024-03-06T03:45:40;98553.91;;;3.97;63.05
76216;BME280;65010;50.190;18.930;2024-03-06T03:48:45;98550.63;;;3.95;62.98
76216;BME280;65010;50.190;18.930;2024-03-06T03:51:52;98555.75;;;3.85;62.77
76216;BME280;65010;50.190;18.930;2024-03-06T03:55:01;98561.53;;;3.77;63.26
76216;BME280;65010;50.190;18.930;2024-03-06T03:58:07;98557.31;;;3.76;63.19
76216;BME280;65010;50.190;18.930;2024-03-06T04:01:13;98556.84;;;3.71;63.32
76216;BME280;65010;50.190;18.930;2024-03-06T04:04:20;98559.13;;;3.64;63.29
76216;BME280;65010;50.190;18.930;2024-03-06T04:07:25;98556.91;;;3.60;63.42
76216;BME280;65010;50.190;18.930;2024-03-06T04:10:34;98566.13;;;3.53;63.28
76216;BME280;65010;50.190;18.930;2024-03-06T04:13:43;98561.53;;;3.45;63.53
76216;BME280;65010;50.190;18.930;2024-03-06T04:16:50;98555.75;;;3.41;63.66
76216;BME280;65010;50.190;18.930;2024-03-06T04:19:55;98560.03;;;3.42;64.10
76216;BME280;65010;50.190;18.930;2024-03-06T04:23:03;98569.22;;;3.46;64.16
76216;BME280;65010;50.190;18.930;2024-03-06T04:26:13;98574.31;;;3.48;63.96
76216;BME280;65010;50.190;18.930;2024-03-06T04:29:20;98569.81;;;3.50;63.82
76216;BME280;65010;50.190;18.930;2024-03-06T04:32:27;98581.03;;;3.50;63.48
76216;BME280;65010;50.190;18.930;2024-03-06T04:35:33;98577.13;;;3.45;63.55
76216;BME280;65010;50.190;18.930;2024-03-06T04:38:39;98582.47;;;3.43;63.55
76216;BME280;65010;50.190;18.930;2024-03-06T04:41:49;98576.44;;;3.43;63.42
76216;BME280;65010;50.190;18.930;2024-03-06T04:44:54;98585.50;;;3.48;63.57
76216;BME280;65010;50.190;18.930;2024-03-06T04:48:01;98583.13;;;3.57;63.58
76216;BME280;65010;50.190;18.930;2024-03-06T04:51:07;98570.59;;;3.62;63.35
76216;BME280;65010;50.190;18.930;2024-03-06T04:54:13;98577.78;;;3.69;63.24
76216;BME280;65010;50.190;18.930;2024-03-06T04:57:22;98572.59;;;3.69;63.17
76216;BME280;65010;50.190;18.930;2024-03-06T05:00:30;98572.00;;;3.66;63.21
76216;BME280;65010;50.190;18.930;2024-03-06T05:03:36;98577.78;;;3.69;63.09
76216;BME280;65010;50.190;18.930;2024-03-06T05:06:56;98592.66;;;3.67;63.04
76216;BME280;65010;50.190;18.930;2024-03-06T05:10:15;98588.28;;;3.68;63.05
76216;BME280;65010;50.190;18.930;2024-03-06T05:13:38;98595.25;;;3.67;63.18
76216;BME280;65010;50.190;18.930;2024-03-06T05:16:58;98599.41;;;3.70;63.18
76216;BME280;65010;50.190;18.930;2024-03-06T05:20:18;98594.78;;;3.74;63.20
76216;BME280;65010;50.190;18.930;2024-03-06T05:23:38;98591.53;;;3.81;63.29
76216;BME280;65010;50.190;18.930;2024-03-06T05:26:58;98593.91;;;3.84;63.32
76216;BME280;65010;50.190;18.930;2024-03-06T05:30:21;98607.25;;;3.91;63.21
76216;BME280;65010;50.190;18.930;2024-03-06T05:33:41;98604.28;;;3.96;63.08
76216;BME280;65010;50.190;18.930;2024-03-06T05:37:01;98604.03;;;3.99;63.15
76216;BME280;65010;50.190;18.930;2024-03-06T05:40:22;98608.75;;;3.94;62.77
76216;BME280;65010;50.190;18.930;2024-03-06T05:43:42;98613.25;;;3.92;62.89
76216;BME280;65010;50.190;18.930;2024-03-06T05:47:05;98623.66;;;3.92;63.02
76216;BME280;65010;50.190;18.930;2024-03-06T05:50:24;98620.25;;;3.91;62.82
76216;BME280;65010;50.190;18.930;2024-03-06T05:53:45;98633.84;;;3.95;62.66
76216;BME280;65010;50.190;18.930;2024-03-06T05:57:05;98623.66;;;3.92;62.63
76216;BME280;65010;50.190;18.930;2024-03-06T06:00:26;98639.72;;;3.97;62.54
76216;BME280;65010;50.190;18.930;2024-03-06T06:03:35;98634.72;;;4.05;62.90
76216;BME280;65010;50.190;18.930;2024-03-06T06:06:42;98637.81;;;4.10;62.52
76216;BME280;65010;50.190;18.930;2024-03-06T06:09:47;98636.00;;;4.10;62.34
76216;BME280;65010;50.190;18.930;2024-03-06T06:12:54;98634.00;;;4.14;62.35
76216;BME280;65010;50.190;18.930;2024-03-06T06:16:00;98642.72;;;4.13;61.83
76216;BME280;65010;50.190;18.930;2024-03-06T06:19:10;98644.63;;;4.11;61.69
76216;BME280;65010;50.190;18.930;2024-03-06T06:22:15;98640.25;;;4.12;61.88
76216;BME280;65010;50.190;18.930;2024-03-06T06:25:22;98644.63;;;4.11;61.86
76216;BME280;65010;50.190;18.930;2024-03-06T06:28:28;98641.09;;;4.12;61.71
76216;BME280;65010;50.190;18.930;2024-03-06T06:31:34;98641.91;;;4.13;61.90
76216;BME280;65010;50.190;18.930;2024-03-06T06:34:43;98640.41;;;4.10;61.73
76216;BME280;65010;50.190;18.930;2024-03-06T06:37:49;98649.72;;;4.13;61.93
76216;BME280;65010;50.190;18.930;2024-03-06T06:40:55;98642.81;;;4.23;61.70
76216;BME280;65010;50.190;18.930;2024-03-06T06:44:02;98640.28;;;4.33;62.04
76216;BME280;65010;50.190;18.930;2024-03-06T06:47:08;98639.13;;;4.46;61.66
76216;BME280;65010;50.190;18.930;2024-03-06T06:50:17;98640.97;;;4.56;61.26
76216;BME280;65010;50.190;18.930;2024-03-06T06:53:25;98636.22;;;4.61;61.02
76216;BME280;65010;50.190;18.930;2024-03-06T06:56:32;98636.22;;;4.61;60.83
76216;BME280;65010;50.190;18.930;2024-03-06T06:59:38;98639.50;;;4.63;60.96
76216;BME280;65010;50.190;18.930;2024-03-06T07:02:45;98648.00;;;4.65;61.04
76216;BME280;65010;50.190;18.930;2024-03-06T07:05:53;98646.91;;;4.67;60.76
76216;BME280;65010;50.190;18.930;2024-03-06T07:09:00;98641.59;;;4.69;60.74
76216;BME280;65010;50.190;18.930;2024-03-06T07:12:07;98642.53;;;4.68;60.77
76216;BME280;65010;50.190;18.930;2024-03-06T07:15:14;98640.78;;;4.68;60.98
76216;BME280;65010;50.190;18.930;2024-03-06T07:18:20;98646.28;;;4.75;61.07
76216;BME280;65010;50.190;18.930;2024-03-06T07:21:29;98646.47;;;4.83;60.56
76216;BME280;65010;50.190;18.930;2024-03-06T07:24:35;98645.41;;;4.96;61.09
76216;BME280;65010;50.190;18.930;2024-03-06T07:27:42;98650.03;;;5.13;60.93
76216;BME280;65010;50.190;18.930;2024-03-06T07:30:48;98645.81;;;5.32;60.90
76216;BME280;65010;50.190;18.930;2024-03-06T07:33:55;98651.19;;;5.40;60.22
76216;BME280;65010;50.190;18.930;2024-03-06T07:37:04;98649.56;;;5.39;59.22
76216;BME280;65010;50.190;18.930;2024-03-06T07:40:11;98654.91;;;5.37;59.38
76216;BME280;65010;50.190;18.930;2024-03-06T07:43:17;98653.09;;;5.38;59.50
76216;BME280;65010;50.190;18.930;2024-03-06T07:46:24;98660.63;;;5.31;59.32
76216;BME280;65010;50.190;18.930;2024-03-06T07:49:29;98661.22;;;5.35;59.96
76216;BME280;65010;50.190;18.930;2024-03-06T07:52:40;98658.75;;;5.43;60.17
76216;BME280;65010;50.190;18.930;2024-03-06T07:55:47;98661.13;;;5.56;60.02
76216;BME280;65010;50.190;18.930;2024-03-06T07:58:54;98665.69;;;5.73;60.07
76216;BME280;65010;50.190;18.930;2024-03-06T08:02:00;98664.44;;;5.97;59.78
76216;BME280;65010;50.190;18.930;2024-03-06T08:05:08;98672.03;;;6.19;59.43
76216;BME280;65010;50.190;18.930;2024-03-06T08:08:17;98678.91;;;6.40;59.45
76216;BME280;65010;50.190;18.930;2024-03-06T08:11:24;98672.28;;;6.55;58.96
76216;BME280;65010;50.190;18.930;2024-03-06T08:14:30;98674.47;;;6.69;58.59
76216;BME280;65010;50.190;18.930;2024-03-06T08:17:39;98677.03;;;6.79;58.10
76216;BME280;65010;50.190;18.930;2024-03-06T08:20:46;98678.25;;;6.95;58.21
76216;BME280;65010;50.190;18.930;2024-03-06T08:23:55;98680.81;;;7.14;58.10
76216;BME280;65010;50.190;18.930;2024-03-06T08:27:01;98678.09;;;7.34;57.35
76216;BME280;65010;50.190;18.930;2024-03-06T08:30:09;98668.81;;;7.49;57.06
76216;BME280;65010;50.190;18.930;2024-03-06T08:33:15;98668.31;;;7.63;56.58
76216;BME280;65010;50.190;18.930;2024-03-06T08:36:24;98672.94;;;7.69;55.61
76216;BME280;65010;50.190;18.930;2024-03-06T08:39:33;98671.25;;;7.78;55.75
76216;BME280;65010;50.190;18.930;2024-03-06T08:42:39;98670.88;;;7.91;56.10
76216;BME280;65010;50.190;18.930;2024-03-06T08:45:45;98673.91;;;7.96;54.34
76216;BME280;65010;50.190;18.930;2024-03-06T08:48:52;98672.63;;;8.00;54.59
76216;BME280;65010;50.190;18.930;2024-03-06T08:51:58;98679.44;;;8.29;54.79
76216;BME280;65010;50.190;18.930;2024-03-06T08:55:07;98679.31;;;8.75;54.37
76216;BME280;65010;50.190;18.930;2024-03-06T08:58:14;98683.00;;;9.24;52.90
76216;BME280;65010;50.190;18.930;2024-03-06T09:01:20;98676.78;;;9.68;51.79
76216;BME280;65010;50.190;18.930;2024-03-06T09:04:28;98679.84;;;10.06;50.19
76216;BME280;65010;50.190;18.930;2024-03-06T09:07:35;98676.72;;;10.43;50.02
76216;BME280;65010;50.190;18.930;2024-03-06T09:10:46;98668.94;;;10.99;49.01
76216;BME280;65010;50.190;18.930;2024-03-06T09:13:52;98667.56;;;11.67;47.26
76216;BME280;65010;50.190;18.930;2024-03-06T09:16:58;98673.63;;;12.45;46.08
76216;BME280;65010;50.190;18.930;2024-03-06T09:20:05;98662.38;;;13.19;44.77
76216;BME280;65010;50.190;18.930;2024-03-06T09:23:16;98657.81;;;13.79;42.82
76216;BME280;65010;50.190;18.930;2024-03-06T09:26:25;98663.44;;;14.13;41.00
76216;BME280;65010;50.190;18.930;2024-03-06T09:29:31;98665.06;;;14.35;41.22
76216;BME280;65010;50.190;18.930;2024-03-06T09:32:38;98665.38;;;14.47;41.21
76216;BME280;65010;50.190;18.930;2024-03-06T09:35:46;98660.56;;;14.57;40.29
76216;BME280;65010;50.190;18.930;2024-03-06T09:38:53;98654.72;;;14.90;39.94
76216;BME280;65010;50.190;18.930;2024-03-06T09:42:01;98652.91;;;15.32;38.95
76216;BME280;65010;50.190;18.930;2024-03-06T09:45:08;98650.41;;;15.72;37.61
76216;BME280;65010;50.190;18.930;2024-03-06T09:48:15;98653.38;;;15.97;36.91
76216;BME280;65010;50.190;18.930;2024-03-06T09:51:24;98655.03;;;16.12;36.85
76216;BME280;65010;50.190;18.930;2024-03-06T09:54:30;98653.19;;;16.12;35.72
76216;BME280;65010;50.190;18.930;2024-03-06T09:57:39;98660.31;;;16.05;35.77
76216;BME280;65010;50.190;18.930;2024-03-06T10:00:46;98666.81;;;15.89;35.59
76216;BME280;65010;50.190;18.930;2024-03-06T10:03:56;98661.69;;;15.81;36.10
76216;BME280;65010;50.190;18.930;2024-03-06T10:07:01;98666.72;;;15.69;35.44
76216;BME280;65010;50.190;18.930;2024-03-06T10:10:11;98669.41;;;15.27;34.67
76216;BME280;65010;50.190;18.930;2024-03-06T10:13:23;98669.19;;;14.94;35.62
76216;BME280;65010;50.190;18.930;2024-03-06T10:16:30;98670.56;;;14.62;35.61
76216;BME280;65010;50.190;18.930;2024-03-06T10:19:38;98666.72;;;14.36;35.85
76216;BME280;65010;50.190;18.930;2024-03-06T10:22:52;98663.75;;;14.24;37.08
76216;BME280;65010;50.190;18.930;2024-03-06T10:26:00;98664.72;;;14.17;36.89
76216;BME280;65010;50.190;18.930;2024-03-06T10:29:09;98665.66;;;14.09;37.27
76216;BME280;65010;50.190;18.930;2024-03-06T10:32:17;98664.09;;;14.15;38.06
76216;BME280;65010;50.190;18.930;2024-03-06T10:35:24;98669.38;;;14.15;37.17
76216;BME280;65010;50.190;18.930;2024-03-06T10:38:35;98666.66;;;14.08;37.45
76216;BME280;65010;50.190;18.930;2024-03-06T10:41:46;98666.22;;;14.04;37.87
76216;BME280;65010;50.190;18.930;2024-03-06T10:45:01;98668.19;;;13.96;37.72
76216;BME280;65010;50.190;18.930;2024-03-06T10:48:13;98660.47;;;13.79;37.40
76216;BME280;65010;50.190;18.930;2024-03-06T10:51:21;98669.13;;;13.73;37.53
76216;BME280;65010;50.190;18.930;2024-03-06T10:54:30;98670.25;;;13.64;37.70
76216;BME280;65010;50.190;18.930;2024-03-06T10:57:40;98676.03;;;13.59;38.00
76216;BME280;65010;50.190;18.930;2024-03-06T11:00:53;98664.59;;;13.52;37.92
76216;BME280;65010;50.190;18.930;2024-03-06T11:04:00;98670.97;;;13.43;38.09
76216;BME280;65010;50.190;18.930;2024-03-06T11:07:09;98670.28;;;13.34;38.38
76216;BME280;65010;50.190;18.930;2024-03-06T11:10:30;98673.72;;;13.05;38.66
76216;BME280;65010;50.190;18.930;2024-03-06T11:13:39;98666.25;;;12.79;38.97
76216;BME280;65010;50.190;18.930;2024-03-06T11:17:02;98659.63;;;12.45;39.11
76216;BME280;65010;50.190;18.930;2024-03-06T11:20:17;98661.63;;;12.20;39.59
76216;BME280;65010;50.190;18.930;2024-03-06T11:23:24;98662.63;;;11.96;40.25
76216;BME280;65010;50.190;18.930;2024-03-06T11:26:35;98664.34;;;11.80;41.37
76216;BME280;65010;50.190;18.930;2024-03-06T11:30:02;98656.75;;;11.62;42.16
76216;BME280;65010;50.190;18.930;2024-03-06T11:33:17;98655.13;;;11.53;42.84
76216;BME280;65010;50.190;18.930;2024-03-06T11:36:25;98647.75;;;11.48;42.66
76216;BME280;65010;50.190;18.930;2024-03-06T11:39:34;98646.81;;;11.33;42.94
76216;BME280;65010;50.190;18.930;2024-03-06T11:42:41;98652.44;;;11.22;43.25
76216;BME280;65010;50.190;18.930;2024-03-06T11:45:47;98644.09;;;11.10;43.19
76216;BME280;65010;50.190;18.930;2024-03-06T11:48:58;98651.53;;;10.98;43.61
76216;BME280;65010;50.190;18.930;2024-03-06T11:52:07;98638.59;;;10.80;44.21
76216;BME280;65010;50.190;18.930;2024-03-06T11:55:14;98648.94;;;10.74;44.65
76216;BME280;65010;50.190;18.930;2024-03-06T11:58:21;98642.56;;;10.43;45.04
76216;BME280;65010;50.190;18.930;2024-03-06T12:01:26;98645.22;;;10.19;45.67
76216;BME280;65010;50.190;18.930;2024-03-06T12:04:36;98641.13;;;10.00;46.63
76216;BME280;65010;50.190;18.930;2024-03-06T12:07:46;98638.47;;;9.92;47.20
76216;BME280;65010;50.190;18.930;2024-03-06T12:10:53;98635.72;;;10.01;47.69
76216;BME280;65010;50.190;18.930;2024-03-06T12:14:01;98638.16;;;10.11;48.05
76216;BME280;65010;50.190;18.930;2024-03-06T12:17:12;98640.31;;;10.16;48.82
76216;BME280;65010;50.190;18.930;2024-03-06T12:20:24;98631.94;;;10.12;48.83
76216;BME280;65010;50.190;18.930;2024-03-06T12:23:31;98629.94;;;9.98;49.00
76216;BME280;65010;50.190;18.930;2024-03-06T12:26:37;98631.25;;;9.85;50.06
76216;BME280;65010;50.190;18.930;2024-03-06T12:29:44;98641.50;;;9.70;50.57
76216;BME280;65010;50.190;18.930;2024-03-06T12:32:57;98636.34;;;9.36;50.77
76216;BME280;65010;50.190;18.930;2024-03-06T12:36:10;98634.59;;;9.10;51.28
76216;BME280;65010;50.190;18.930;2024-03-06T12:39:16;98633.41;;;8.97;51.59
76216;BME280;65010;50.190;18.930;2024-03-06T12:42:26;98634.19;;;8.89;52.32
76216;BME280;65010;50.190;18.930;2024-03-06T12:45:33;98641.34;;;8.79;52.29
76216;BME280;65010;50.190;18.930;2024-03-06T12:48:40;98642.78;;;8.73;53.18
76216;BME280;65010;50.190;18.930;2024-03-06T12:51:48;98643.72;;;8.72;53.26
76216;BME280;65010;50.190;18.930;2024-03-06T12:54:55;98641.81;;;8.82;53.55
76216;BME280;65010;50.190;18.930;2024-03-06T12:58:01;98636.94;;;8.87;53.51
76216;BME280;65010;50.190;18.930;2024-03-06T13:01:08;98644.69;;;8.97;53.30
76216;BME280;65010;50.190;18.930;2024-03-06T13:04:15;98647.66;;;9.02;53.52
76216;BME280;65010;50.190;18.930;2024-03-06T13:07:24;98650.16;;;9.12;53.30
76216;BME280;65010;50.190;18.930;2024-03-06T13:10:32;98644.44;;;9.17;53.19
76216;BME280;65010;50.190;18.930;2024-03-06T13:13:38;98643.84;;;9.23;53.42
76216;BME280;65010;50.190;18.930;2024-03-06T13:16:44;98646.28;;;9.24;52.85
76216;BME280;65010;50.190;18.930;2024-03-06T13:19:51;98643.66;;;9.24;53.11
76216;BME280;65010;50.190;18.930;2024-03-06T13:23:00;98643.66;;;9.24;53.06
76216;BME280;65010;50.190;18.930;2024-03-06T13:26:07;98645.31;;;9.25;53.30
76216;BME280;65010;50.190;18.930;2024-03-06T13:29:13;98638.28;;;9.26;53.41
76216;BME280;65010;50.190;18.930;2024-03-06T13:32:20;98643.13;;;9.13;53.31
76216;BME280;65010;50.190;18.930;2024-03-06T13:35:26;98641.31;;;9.05;53.57
76216;BME280;65010;50.190;18.930;2024-03-06T13:38:35;98639.72;;;8.86;53.30
76216;BME280;65010;50.190;18.930;2024-03-06T13:41:41;98649.34;;;8.77;54.13
76216;BME280;65010;50.190;18.930;2024-03-06T13:44:48;98636.97;;;8.61;53.98
76216;BME280;65010;50.190;18.930;2024-03-06T13:47:54;98644.03;;;8.43;54.33
76216;BME280;65010;50.190;18.930;2024-03-06T13:51:01;98647.41;;;8.35;55.11
76216;BME280;65010;50.190;18.930;2024-03-06T13:54:09;98636.78;;;8.37;55.42
76216;BME280;65010;50.190;18.930;2024-03-06T13:57:16;98648.09;;;8.37;55.48
76216;BME280;65010;50.190;18.930;2024-03-06T14:00:22;98650.91;;;8.44;55.49
76216;BME280;65010;50.190;18.930;2024-03-06T14:03:28;98646.66;;;8.43;55.72
76216;BME280;65010;50.190;18.930;2024-03-06T14:06:36;98653.47;;;8.36;55.30
76216;BME280;65010;50.190;18.930;2024-03-06T14:09:45;98652.06;;;8.23;55.75
76216;BME280;65010;50.190;18.930;2024-03-06T14:12:51;98655.34;;;8.07;56.08
76216;BME280;65010;50.190;18.930;2024-03-06T14:15:58;98656.53;;;7.95;56.39
76216;BME280;65010;50.190;18.930;2024-03-06T14:19:06;98658.53;;;7.83;56.74
76216;BME280;65010;50.190;18.930;2024-03-06T14:22:14;98635.56;;;7.59;57.19
76216;BME280;65010;50.190;18.930;2024-03-06T14:25:22;98645.66;;;7.54;57.51
76216;BME280;65010;50.190;18.930;2024-03-06T14:28:29;98650.94;;;7.44;58.01
76216;BME280;65010;50.190;18.930;2024-03-06T14:31:34;98660.19;;;7.39;58.15
76216;BME280;65010;50.190;18.930;2024-03-06T14:34:41;98652.94;;;7.33;58.79
76216;BME280;65010;50.190;18.930;2024-03-06T14:37:47;98651.41;;;7.40;59.49
76216;BME280;65010;50.190;18.930;2024-03-06T14:40:56;98663.56;;;7.49;59.67
76216;BME280;65010;50.190;18.930;2024-03-06T14:44:02;98661.88;;;7.58;59.71
76216;BME280;65010;50.190;18.930;2024-03-06T14:47:09;98653.28;;;7.65;60.11
76216;BME280;65010;50.190;18.930;2024-03-06T14:50:15;98662.66;;;7.68;59.68
76216;BME280;65010;50.190;18.930;2024-03-06T14:53:22;98664.34;;;7.59;60.04
76216;BME280;65010;50.190;18.930;2024-03-06T14:56:30;98669.63;;;7.49;60.05
76216;BME280;65010;50.190;18.930;2024-03-06T14:59:37;98663.94;;;7.36;60.33
76216;BME280;65010;50.190;18.930;2024-03-06T15:02:44;98660.09;;;7.30;60.73
76216;BME280;65010;50.190;18.930;2024-03-06T15:05:51;98658.34;;;7.21;60.97
76216;BME280;65010;50.190;18.930;2024-03-06T15:08:57;98658.41;;;7.12;60.70
76216;BME280;65010;50.190;18.930;2024-03-06T15:12:07;98661.19;;;7.00;61.20
76216;BME280;65010;50.190;18.930;2024-03-06T15:15:13;98663.13;;;6.98;61.64
76216;BME280;65010;50.190;18.930;2024-03-06T15:18:20;98663.25;;;6.97;61.67
76216;BME280;65010;50.190;18.930;2024-03-06T15:21:26;98654.06;;;6.93;61.85
76216;BME280;65010;50.190;18.930;2024-03-06T15:24:33;98657.09;;;6.88;62.02
76216;BME280;65010;50.190;18.930;2024-03-06T15:27:41;98665.22;;;6.85;62.22
76216;BME280;65010;50.190;18.930;2024-03-06T15:30:48;98658.59;;;6.90;62.60
76216;BME280;65010;50.190;18.930;2024-03-06T15:33:58;98665.44;;;7.01;62.90
76216;BME280;65010;50.190;18.930;2024-03-06T15:37:05;98659.63;;;7.07;62.86
76216;BME280;65010;50.190;18.930;2024-03-06T15:40:11;98661.16;;;7.10;62.61
76216;BME280;65010;50.190;18.930;2024-03-06T15:43:20;98667.88;;;7.13;63.31
76216;BME280;65010;50.190;18.930;2024-03-06T15:46:26;98658.78;;;7.17;63.32
76216;BME280;65010;50.190;18.930;2024-03-06T15:49:32;98655.03;;;7.19;63.06
76216;BME280;65010;50.190;18.930;2024-03-06T15:52:39;98655.59;;;7.23;63.44
76216;BME280;65010;50.190;18.930;2024-03-06T15:55:45;98649.53;;;7.22;63.20
76216;BME280;65010;50.190;18.930;2024-03-06T15:58:54;98660.13;;;7.21;63.16
76216;BME280;65010;50.190;18.930;2024-03-06T16:02:00;98656.41;;;7.23;63.63
76216;BME280;65010;50.190;18.930;2024-03-06T16:05:07;98659.56;;;7.27;63.22
76216;BME280;65010;50.190;18.930;2024-03-06T16:08:14;98658.19;;;7.23;63.31
76216;BME280;65010;50.190;18.930;2024-03-06T16:11:20;98664.78;;;7.27;63.42
76216;BME280;65010;50.190;18.930;2024-03-06T16:14:30;98660.53;;;7.26;63.45
76216;BME280;65010;50.190;18.930;2024-03-06T16:17:35;98660.53;;;7.26;63.44
76216;BME280;65010;50.190;18.930;2024-03-06T16:20:42;98659.69;;;7.25;63.22
76216;BME280;65010;50.190;18.930;2024-03-06T16:23:48;98671.84;;;7.17;63.32
76216;BME280;65010;50.190;18.930;2024-03-06T16:26:55;98664.47;;;7.02;63.08
76216;BME280;65010;50.190;18.930;2024-03-06T16:30:05;98672.66;;;6.89;63.34
76216;BME280;65010;50.190;18.930;2024-03-06T16:33:12;98672.94;;;6.77;63.47